createdAt,value
2019-03-03T00:02:24.618Z,51.17
2019-03-03T00:04:55.234Z,54.63
2019-03-03T00:07:26.333Z,48.20
2019-03-03T00:09:56.854Z,48.93
2019-03-03T00:12:27.308Z,54.33
2019-03-03T00:14:58.877Z,54.67
2019-03-03T00:17:29.545Z,51.57
2019-03-03T00:19:59.964Z,56.47
2019-03-03T00:22:30.531Z,52.27
2019-03-03T00:25:01.046Z,49.50
2019-03-03T00:27:31.457Z,53.60
2019-03-03T00:30:02.031Z,50.77
2019-03-03T00:32:32.480Z,55.23
2019-03-03T00:35:04.680Z,49.83
2019-03-03T00:37:52.380Z,49.77
2019-03-03T00:40:36.524Z,49.77
2019-03-03T00:43:20.798Z,46.33
2019-03-03T00:45:52.947Z,49.07
2019-03-03T00:48:41.257Z,54.10
2019-03-03T00:51:15.950Z,49.47
2019-03-03T00:53:50.606Z,51.83
2019-03-03T00:56:32.001Z,52.17
2019-03-03T00:59:10.686Z,47.90
2019-03-03T01:02:01.322Z,50.57
2019-03-03T01:04:33.410Z,52.40
2019-03-03T01:07:05.682Z,51.63
2019-03-03T01:09:37.951Z,52.73
2019-03-03T01:12:25.618Z,51.43
2019-03-03T01:14:57.785Z,48.70
2019-03-03T01:17:42.140Z,50.20
2019-03-03T01:20:17.128Z,48.17
2019-03-03T01:23:04.674Z,50.60
2019-03-03T01:25:35.187Z,47.23
2019-03-03T01:28:06.183Z,49.37
2019-03-03T01:30:36.628Z,46.47
2019-03-03T01:33:07.167Z,47.60
2019-03-03T01:35:38.615Z,51.33
2019-03-03T01:40:42.316Z,50.67
2019-03-03T01:43:12.856Z,43.13
2019-03-03T01:45:43.402Z,52.87
2019-03-03T01:48:13.783Z,48.87
2019-03-03T01:50:44.317Z,41.40
2019-03-03T01:53:14.769Z,45.83
2019-03-03T01:55:45.246Z,46.97
2019-03-03T01:58:21.669Z,46.13
2019-03-03T02:00:52.282Z,55.23
2019-03-03T02:03:22.937Z,43.47
2019-03-03T02:05:53.416Z,47.73
2019-03-03T02:08:23.795Z,45.93
2019-03-03T02:10:54.260Z,51.53
2019-03-03T02:13:28.914Z,48.70
2019-03-03T02:15:59.377Z,50.23
2019-03-03T02:18:29.930Z,46.10
2019-03-03T02:21:00.542Z,43.97
2019-03-03T02:23:31.067Z,49.33
2019-03-03T02:26:01.586Z,45.33
2019-03-03T02:28:32.129Z,42.67
2019-03-03T02:31:02.656Z,46.73
2019-03-03T02:33:33.148Z,44.03
2019-03-03T02:36:04.639Z,42.70
2019-03-03T02:38:35.149Z,40.13
2019-03-03T02:41:06.072Z,42.17
2019-03-03T02:43:40.040Z,40.30
2019-03-03T02:46:10.676Z,41.97
2019-03-03T02:48:41.251Z,44.57
2019-03-03T02:51:11.807Z,44.07
2019-03-03T02:53:42.232Z,45.93
2019-03-03T02:56:12.667Z,39.77
2019-03-03T02:58:43.215Z,42.87
2019-03-03T03:01:15.338Z,43.50
2019-03-03T03:03:46.878Z,42.80
2019-03-03T03:06:24.965Z,44.63
2019-03-03T03:09:12.540Z,46.83
2019-03-03T03:12:00.896Z,48.47
2019-03-03T03:14:32.958Z,47.73
2019-03-03T03:17:08.115Z,50.33
2019-03-03T03:19:56.578Z,50.70
2019-03-03T03:22:41.036Z,50.70
2019-03-03T03:25:22.187Z,49.57
2019-03-03T03:28:10.350Z,45.73
2019-03-03T03:30:48.449Z,44.30
2019-03-03T03:33:20.667Z,49.80
2019-03-03T03:35:59.104Z,45.87
2019-03-03T03:38:34.679Z,50.33
2019-03-03T03:41:12.797Z,45.47
2019-03-03T03:43:44.874Z,47.80
2019-03-03T03:46:17.092Z,45.60
2019-03-03T03:49:05.277Z,47.50
2019-03-03T03:51:46.741Z,41.67
2019-03-03T03:54:37.166Z,41.93
2019-03-03T03:57:24.643Z,42.20
2019-03-03T04:00:05.781Z,43.77
2019-03-03T04:02:54.086Z,42.20
2019-03-03T04:05:29.033Z,44.53
2019-03-03T04:08:01.561Z,40.03
2019-03-03T04:10:36.566Z,45.83
2019-03-03T04:13:08.864Z,45.90
2019-03-03T04:15:47.383Z,41.57
2019-03-03T04:18:19.548Z,39.87
2019-03-03T04:20:54.742Z,39.93
2019-03-03T04:23:26.877Z,41.17
2019-03-03T04:25:58.998Z,46.13
2019-03-03T04:28:31.046Z,40.23
2019-03-03T04:31:06.352Z,45.33
2019-03-03T04:33:38.509Z,42.10
2019-03-03T04:36:22.969Z,46.07
2019-03-03T04:38:56.197Z,42.13
2019-03-03T04:41:37.379Z,41.63
2019-03-03T04:44:09.649Z,39.13
2019-03-03T04:46:41.703Z,44.90
2019-03-03T04:49:32.186Z,43.13
2019-03-03T04:52:09.983Z,44.30
2019-03-03T04:55:00.421Z,46.90
2019-03-03T04:57:32.603Z,42.40
2019-03-03T05:02:48.349Z,41.87
2019-03-03T05:05:20.503Z,47.43
2019-03-03T05:08:09.571Z,41.33
2019-03-03T05:10:42.793Z,43.47
2019-03-03T05:13:24.897Z,45.87
2019-03-03T05:16:12.082Z,50.80
2019-03-03T05:18:44.115Z,46.73
2019-03-03T05:21:14.743Z,53.67
2019-03-03T05:23:45.846Z,46.13
2019-03-03T05:26:16.286Z,42.60
2019-03-03T05:28:46.797Z,40.83
2019-03-03T05:31:17.171Z,45.17
2019-03-03T05:33:47.694Z,41.50
2019-03-03T05:36:18.824Z,45.33
2019-03-03T05:38:49.295Z,42.17
2019-03-03T05:41:20.626Z,43.93
2019-03-03T05:43:51.268Z,41.87
2019-03-03T05:46:21.680Z,41.10
2019-03-03T05:48:52.293Z,42.37
2019-03-03T05:51:22.687Z,41.47
2019-03-03T05:53:53.259Z,44.93
2019-03-03T05:56:23.819Z,41.53
2019-03-03T05:58:54.344Z,41.83
2019-03-03T06:01:24.765Z,43.37
2019-03-03T06:03:55.806Z,43.33
2019-03-03T06:06:26.289Z,44.37
2019-03-03T06:08:56.815Z,47.07
2019-03-03T06:11:27.319Z,44.60
2019-03-03T06:13:57.713Z,43.07
2019-03-03T06:16:30.450Z,47.63
2019-03-03T06:19:01.007Z,43.27
2019-03-03T06:21:33.665Z,43.27
2019-03-03T06:24:04.207Z,44.27
2019-03-03T06:26:34.798Z,43.37
2019-03-03T06:29:05.447Z,43.17
2019-03-03T06:31:36.069Z,45.77
2019-03-03T06:34:06.703Z,45.73
2019-03-03T06:36:37.508Z,42.90
2019-03-03T06:39:09.002Z,46.57
2019-03-03T06:41:42.099Z,43.67
2019-03-03T06:44:12.464Z,42.57
2019-03-03T06:46:43.289Z,39.57
2019-03-03T06:49:13.712Z,46.10
2019-03-03T06:51:44.134Z,44.93
2019-03-03T06:54:14.643Z,43.30
2019-03-03T06:56:45.157Z,39.63
2019-03-03T06:59:15.612Z,40.80
2019-03-03T07:01:46.320Z,38.50
2019-03-03T07:04:16.929Z,41.47
2019-03-03T07:06:47.637Z,41.23
2019-03-03T07:09:18.168Z,39.17
2019-03-03T07:11:52.267Z,38.43
2019-03-03T07:14:29.233Z,46.60
2019-03-03T07:16:58.656Z,51.87
2019-03-03T07:19:29.132Z,52.50
2019-03-03T07:22:01.261Z,49.97
2019-03-03T07:24:34.840Z,47.40
2019-03-03T07:27:05.582Z,47.17
2019-03-03T07:29:36.293Z,43.27
2019-03-03T07:32:06.949Z,45.83
2019-03-03T07:34:37.457Z,47.57
2019-03-03T07:37:08.085Z,44.93
2019-03-03T07:39:39.553Z,47.30
2019-03-03T07:42:10.880Z,46.03
2019-03-03T07:50:43.185Z,51.67
2019-03-03T07:53:13.983Z,41.97
2019-03-03T07:55:44.592Z,40.40
2019-03-03T07:58:15.525Z,42.07
2019-03-03T08:00:48.027Z,44.53
2019-03-03T08:03:19.690Z,44.53
2019-03-03T08:05:50.318Z,45.87
2019-03-03T08:08:22.417Z,43.80
2019-03-03T08:10:53.464Z,45.80
2019-03-03T08:13:24.013Z,44.37
2019-03-03T08:15:54.593Z,46.07
2019-03-03T08:18:25.148Z,44.90
2019-03-03T08:20:58.983Z,45.40
2019-03-03T08:23:29.737Z,44.93
2019-03-03T08:26:01.755Z,40.30
2019-03-03T08:28:32.306Z,45.20
2019-03-03T08:31:02.916Z,46.43
2019-03-03T08:33:33.541Z,42.10
2019-03-03T08:36:04.175Z,47.23
2019-03-03T08:38:34.709Z,49.37
2019-03-03T08:41:06.334Z,41.53
2019-03-03T08:43:39.931Z,46.43
2019-03-03T08:46:20.917Z,46.50
2019-03-03T08:48:54.035Z,41.40
2019-03-03T08:51:26.237Z,41.67
2019-03-03T08:54:14.502Z,40.37
2019-03-03T08:56:47.603Z,42.07
2019-03-03T08:59:31.028Z,41.47
2019-03-03T09:02:06.433Z,42.37
2019-03-03T09:04:42.560Z,42.73
2019-03-03T09:07:24.140Z,42.80
2019-03-03T09:10:15.032Z,44.57
2019-03-03T09:12:59.680Z,45.13
2019-03-03T09:15:37.899Z,40.47
2019-03-03T09:18:26.989Z,47.70
2019-03-03T09:21:05.285Z,41.17
2019-03-03T09:23:37.474Z,41.30
2019-03-03T09:26:24.883Z,41.17
2019-03-03T09:29:02.647Z,40.83
2019-03-03T09:31:40.199Z,40.50
2019-03-03T09:34:18.742Z,45.03
2019-03-03T09:37:00.031Z,42.07
2019-03-03T09:39:49.463Z,43.60
2019-03-03T09:42:27.428Z,46.23
2019-03-03T09:45:00.391Z,42.10
2019-03-03T09:47:38.358Z,45.87
2019-03-03T09:50:16.217Z,42.50
2019-03-03T09:52:58.184Z,43.43
2019-03-03T09:55:50.635Z,45.00
2019-03-03T09:58:29.689Z,47.13
2019-03-03T10:01:02.493Z,42.37
2019-03-03T10:03:41.235Z,39.93
2019-03-03T10:06:22.845Z,42.57
2019-03-03T10:08:55.104Z,40.00
2019-03-03T10:11:28.127Z,40.33
2019-03-03T10:14:00.874Z,40.20
2019-03-03T10:16:37.277Z,41.00
2019-03-03T10:19:09.534Z,43.60
2019-03-03T10:21:44.582Z,42.57
2019-03-03T10:27:04.303Z,42.37
2019-03-03T10:29:39.242Z,42.00
2019-03-03T10:32:11.599Z,45.53
2019-03-03T10:34:56.140Z,42.43
2019-03-03T10:37:28.411Z,44.10
2019-03-03T10:40:24.960Z,44.83
2019-03-03T10:43:16.471Z,42.07
2019-03-03T10:45:56.467Z,38.63
2019-03-03T10:48:31.945Z,40.97
2019-03-03T10:51:04.708Z,43.87
2019-03-03T10:53:37.007Z,36.27
2019-03-03T10:56:12.138Z,35.60
2019-03-03T10:58:46.938Z,38.80
2019-03-03T11:01:19.436Z,35.90
2019-03-03T11:04:07.289Z,40.03
2019-03-03T11:06:42.410Z,36.87
2019-03-03T11:09:37.503Z,34.73
2019-03-03T11:12:22.215Z,36.83
2019-03-03T11:14:57.294Z,34.80
2019-03-03T11:17:29.835Z,36.00
2019-03-03T11:20:16.936Z,38.40
2019-03-03T11:22:51.789Z,31.13
2019-03-03T11:25:30.455Z,36.97
2019-03-03T11:28:03.018Z,36.13
2019-03-03T11:30:44.232Z,35.80
2019-03-03T11:33:36.359Z,30.00
2019-03-03T11:36:10.303Z,31.77
2019-03-03T11:38:44.264Z,36.60
2019-03-03T11:41:16.436Z,33.77
2019-03-03T11:43:54.276Z,36.43
2019-03-03T11:46:33.816Z,38.30
2019-03-03T11:49:18.551Z,35.77
2019-03-03T11:51:59.970Z,29.77
2019-03-03T11:54:34.834Z,30.90
2019-03-03T11:57:09.997Z,36.57
2019-03-03T11:59:42.142Z,43.37
2019-03-03T12:02:34.830Z,33.50
2019-03-03T12:05:27.038Z,30.13
2019-03-03T12:08:02.272Z,30.43
2019-03-03T12:10:40.705Z,34.47
2019-03-03T12:13:14.574Z,31.53
2019-03-03T12:16:03.317Z,33.97
2019-03-03T12:18:51.429Z,35.60
2019-03-03T12:21:26.477Z,32.83
2019-03-03T12:24:03.013Z,36.57
2019-03-03T12:26:35.171Z,34.53
2019-03-03T12:29:23.852Z,33.83
2019-03-03T12:31:56.826Z,32.07
2019-03-03T12:34:38.374Z,31.87
2019-03-03T12:37:13.756Z,30.73
2019-03-03T12:39:45.861Z,35.93
2019-03-03T12:51:40.580Z,36.90
2019-03-03T12:54:27.784Z,38.43
2019-03-03T12:57:02.460Z,38.63
2019-03-03T12:59:43.736Z,34.07
2019-03-03T13:02:25.165Z,37.07
2019-03-03T13:05:06.460Z,41.00
2019-03-03T13:07:44.397Z,39.53
2019-03-03T13:10:33.377Z,40.30
2019-03-03T13:13:05.892Z,41.17
2019-03-03T13:15:48.990Z,44.33
2019-03-03T13:18:21.051Z,40.33
2019-03-03T13:20:53.158Z,41.93
2019-03-03T13:23:28.330Z,42.67
2019-03-03T13:26:01.205Z,39.17
2019-03-03T13:28:35.373Z,41.33
2019-03-03T13:31:20.431Z,42.90
2019-03-03T13:34:01.377Z,38.27
2019-03-03T13:36:49.780Z,38.63
2019-03-03T13:39:23.429Z,41.23
2019-03-03T13:42:05.311Z,40.30
2019-03-03T13:44:36.086Z,38.07
2019-03-03T13:47:10.432Z,39.97
2019-03-03T13:49:41.529Z,39.67
2019-03-03T13:52:13.707Z,37.27
2019-03-03T13:54:45.393Z,40.33
2019-03-03T13:57:15.940Z,38.10
2019-03-03T13:59:49.619Z,36.80
2019-03-03T14:02:22.052Z,40.13
2019-03-03T14:04:53.979Z,40.40
2019-03-03T14:07:24.534Z,43.13
2019-03-03T14:09:57.997Z,42.17
2019-03-03T14:12:29.061Z,46.03
2019-03-03T14:15:00.483Z,43.93
2019-03-03T14:17:33.548Z,43.50
2019-03-03T14:20:06.456Z,41.07
2019-03-03T14:22:37.562Z,40.30
2019-03-03T14:25:11.107Z,42.10
2019-03-03T14:27:42.023Z,38.77
2019-03-03T14:30:25.287Z,40.97
2019-03-03T14:32:55.924Z,41.77
2019-03-03T14:35:26.487Z,46.63
2019-03-03T14:38:00.672Z,43.67
2019-03-03T14:40:35.767Z,41.80
2019-03-03T14:43:06.736Z,39.57
2019-03-03T14:45:38.596Z,41.33
2019-03-03T14:48:09.215Z,46.90
2019-03-03T14:50:39.971Z,39.90
2019-03-03T14:53:14.565Z,46.20
2019-03-03T14:55:45.754Z,51.33
2019-03-03T14:58:18.429Z,54.93
2019-03-03T15:00:49.350Z,59.03
2019-03-03T15:03:19.996Z,55.50
2019-03-03T15:05:50.995Z,54.90
2019-03-03T15:08:22.709Z,52.50
2019-03-03T15:10:53.551Z,50.80
2019-03-03T15:13:24.660Z,49.57
2019-03-03T15:15:55.282Z,54.73
2019-03-03T15:18:25.864Z,57.60
2019-03-03T15:20:56.509Z,55.70
2019-03-03T15:23:45.249Z,54.07
2019-03-03T15:26:15.940Z,49.90
2019-03-03T15:28:46.617Z,50.83
2019-03-03T15:31:17.245Z,52.83
2019-03-03T15:33:47.716Z,51.43
2019-03-03T15:36:39.281Z,54.40
2019-03-03T15:39:10.223Z,52.50
2019-03-03T15:41:43.352Z,49.13
2019-03-03T15:44:16.097Z,51.77
2019-03-03T15:46:48.174Z,53.70
2019-03-03T15:49:20.573Z,48.00
2019-03-03T15:52:10.785Z,52.80
2019-03-03T15:54:42.325Z,54.20
2019-03-03T15:57:12.815Z,47.10
2019-03-03T15:59:46.766Z,53.53
2019-03-03T16:02:23.271Z,56.10
2019-03-03T16:04:52.588Z,53.30
2019-03-03T16:07:23.114Z,56.17
2019-03-03T16:09:54.106Z,53.47
2019-03-03T16:12:24.725Z,51.47
2019-03-03T16:14:56.148Z,51.43
2019-03-03T16:17:26.994Z,63.90
2019-03-03T16:19:58.832Z,51.23
2019-03-03T16:22:30.974Z,53.73
2019-03-03T16:25:03.394Z,58.40
2019-03-03T16:27:33.980Z,50.80
2019-03-03T16:30:06.344Z,51.13
2019-03-03T16:32:40.817Z,52.70
2019-03-03T16:35:12.688Z,50.47
2019-03-03T16:37:43.580Z,54.17
2019-03-03T16:40:18.202Z,56.80
2019-03-03T16:42:48.857Z,51.53
2019-03-03T16:45:19.874Z,50.03
2019-03-03T16:47:50.951Z,58.50
2019-03-03T16:50:24.150Z,56.53
2019-03-03T16:52:54.746Z,53.80
2019-03-03T16:55:26.354Z,53.53
2019-03-03T16:57:57.015Z,57.20
2019-03-03T17:00:29.168Z,58.00
2019-03-03T17:02:59.828Z,62.50
2019-03-03T17:05:31.276Z,54.43
2019-03-03T17:08:02.053Z,56.13
2019-03-03T17:10:32.636Z,56.00
2019-03-03T17:13:03.704Z,60.17
2019-03-03T17:15:34.404Z,58.07
2019-03-03T17:18:05.051Z,54.87
2019-03-03T17:20:35.617Z,50.57
2019-03-03T17:23:06.795Z,53.07
2019-03-03T17:25:39.382Z,51.57
2019-03-03T17:28:10.287Z,54.43
2019-03-03T17:30:40.964Z,50.13
2019-03-03T17:33:11.533Z,52.03
2019-03-03T17:35:42.141Z,54.90
2019-03-03T17:40:50.351Z,58.00
2019-03-03T17:43:20.913Z,51.67
2019-03-03T17:45:51.604Z,56.70
2019-03-03T17:48:22.260Z,63.47
2019-03-03T17:50:53.512Z,60.47
2019-03-03T17:53:25.052Z,57.37
2019-03-03T17:55:56.622Z,60.63
2019-03-03T17:58:27.122Z,56.27
2019-03-03T18:00:58.600Z,60.20
2019-03-03T18:03:29.259Z,54.97
2019-03-03T18:05:59.987Z,54.17
2019-03-03T18:08:31.264Z,55.77
2019-03-03T18:11:01.899Z,54.07
2019-03-03T18:13:32.873Z,55.73
2019-03-03T18:16:03.868Z,54.33
2019-03-03T18:18:35.048Z,58.77
2019-03-03T18:21:05.628Z,53.23
2019-03-03T18:23:36.503Z,61.40
2019-03-03T18:26:07.183Z,56.47
2019-03-03T18:28:37.728Z,57.27
2019-03-03T18:31:08.396Z,60.53
2019-03-03T18:33:38.956Z,58.30
2019-03-03T18:36:09.682Z,57.70
2019-03-03T18:38:40.898Z,50.93
2019-03-03T18:41:11.548Z,53.03
2019-03-03T18:43:45.683Z,55.90
2019-03-03T18:46:16.368Z,53.33
2019-03-03T18:48:47.020Z,53.40
2019-03-03T18:51:17.821Z,55.47
2019-03-03T18:53:48.387Z,63.70
2019-03-03T18:56:25.707Z,57.77
2019-03-03T18:58:55.361Z,59.83
2019-03-03T19:01:25.928Z,57.87
2019-03-03T19:03:56.470Z,59.97
2019-03-03T19:06:27.029Z,54.60
2019-03-03T19:08:57.623Z,58.07
2019-03-03T19:11:28.169Z,57.43
2019-03-03T19:13:58.661Z,53.60
2019-03-03T19:16:29.407Z,55.80
2019-03-03T19:18:59.949Z,55.40
2019-03-03T19:21:30.394Z,55.70
2019-03-03T19:24:01.802Z,54.83
2019-03-03T19:26:33.239Z,58.97
2019-03-03T19:29:04.752Z,52.43
2019-03-03T19:31:36.392Z,55.03
2019-03-03T19:34:07.007Z,59.37
2019-03-03T19:36:37.632Z,54.27
2019-03-03T19:39:08.316Z,50.10
2019-03-03T19:44:18.175Z,54.33
2019-03-03T19:46:48.735Z,52.13
2019-03-03T19:49:19.690Z,49.40
2019-03-03T19:51:50.448Z,55.10
2019-03-03T19:54:21.036Z,66.70
2019-03-03T19:56:56.545Z,54.30
2019-03-03T19:59:28.025Z,56.60
2019-03-03T20:02:00.151Z,54.20
2019-03-03T20:04:32.347Z,59.17
2019-03-03T20:07:07.018Z,63.80
2019-03-03T20:09:37.627Z,55.80
2019-03-03T20:12:08.460Z,56.90
2019-03-03T20:14:38.916Z,54.50
2019-03-03T20:17:09.381Z,59.90
2019-03-03T20:19:40.675Z,60.47
2019-03-03T20:22:11.151Z,61.93
2019-03-03T20:24:43.469Z,59.17
2019-03-03T20:27:14.102Z,61.60
2019-03-03T20:29:44.817Z,57.37
2019-03-03T20:32:15.728Z,55.73
2019-03-03T20:34:52.614Z,53.13
2019-03-03T20:37:23.141Z,57.37
2019-03-03T20:39:59.891Z,59.30
2019-03-03T20:42:30.493Z,61.03
2019-03-03T20:45:00.947Z,60.23
2019-03-03T20:47:31.579Z,56.67
2019-03-03T20:50:02.094Z,55.07
2019-03-03T20:52:32.635Z,58.73
2019-03-03T20:55:03.194Z,56.47
2019-03-03T20:57:36.407Z,63.37
2019-03-03T21:00:27.928Z,59.30
2019-03-03T21:02:59.304Z,60.57
2019-03-03T21:05:30.187Z,58.77
2019-03-03T21:08:00.718Z,56.13
2019-03-03T21:10:36.072Z,53.27
2019-03-03T21:13:06.691Z,49.73
2019-03-03T21:15:37.429Z,54.40
2019-03-03T21:18:08.168Z,54.60
2019-03-03T21:20:38.933Z,54.80
2019-03-03T21:23:09.492Z,57.17
2019-03-03T21:25:39.953Z,51.50
2019-03-03T21:28:10.558Z,47.57
2019-03-03T21:30:41.021Z,52.87
2019-03-03T21:33:11.644Z,51.23
2019-03-03T21:35:42.020Z,47.87
2019-03-03T21:38:12.548Z,49.37
2019-03-03T21:40:43.086Z,50.13
2019-03-03T21:43:13.484Z,51.37
2019-03-03T21:45:44.096Z,52.33
2019-03-03T21:50:57.868Z,51.97
2019-03-03T21:53:28.379Z,51.33
2019-03-03T21:55:58.785Z,55.53
2019-03-03T21:58:30.374Z,51.13
2019-03-03T22:01:01.044Z,46.80
2019-03-03T22:03:31.428Z,46.80
2019-03-03T22:06:02.147Z,47.03
2019-03-03T22:08:38.623Z,48.43
2019-03-03T22:11:09.054Z,41.00
2019-03-03T22:13:39.551Z,43.70
2019-03-03T22:16:10.578Z,40.40
2019-03-03T22:18:42.315Z,48.10
2019-03-03T22:21:12.811Z,50.57
2019-03-03T22:23:43.187Z,41.13
2019-03-03T22:26:13.737Z,42.80
2019-03-03T22:29:01.067Z,45.27
2019-03-03T22:31:31.584Z,42.40
2019-03-03T22:34:02.091Z,43.30
2019-03-03T22:36:32.596Z,42.23
2019-03-03T22:39:03.352Z,38.63
2019-03-03T22:41:34.907Z,42.70
2019-03-03T22:44:05.527Z,41.00
2019-03-03T22:46:36.271Z,42.07
2019-03-03T22:49:07.064Z,40.87
2019-03-03T22:51:38.164Z,42.17
2019-03-03T22:54:08.744Z,39.60
2019-03-03T22:56:39.142Z,38.20
2019-03-03T22:59:11.047Z,37.40
2019-03-03T23:01:42.656Z,36.63
2019-03-03T23:04:45.518Z,37.27
2019-03-03T23:07:20.537Z,38.77
2019-03-03T23:10:05.220Z,37.33
2019-03-03T23:13:04.184Z,37.97
2019-03-03T23:15:59.931Z,37.00
2019-03-03T23:19:00.976Z,35.53
2019-03-03T23:21:44.831Z,32.03
2019-03-03T23:24:43.280Z,29.30
2019-03-03T23:27:13.809Z,30.27
2019-03-03T23:29:46.467Z,27.37
2019-03-03T23:32:17.049Z,32.90
2019-03-03T23:34:47.514Z,31.07
2019-03-03T23:37:18.464Z,33.43
2019-03-03T23:39:48.989Z,33.13
2019-03-03T23:42:19.687Z,35.50
2019-03-03T23:44:50.273Z,32.87
2019-03-03T23:47:20.866Z,34.87
2019-03-03T23:49:53.503Z,36.53
2019-03-03T23:52:24.076Z,34.83
2019-03-03T23:54:54.476Z,36.07
2019-03-03T23:57:24.964Z,34.57
2019-03-03T23:59:56.149Z,39.00
